sensor_id;sensor_type;location;lat;lon;timestamp;P1;durP1;ratioP1;P2;durP2;ratioP2
28653;SDS011;24320;56.980;24.336;2023-07-08T00:01:13;3.35;;;1.95;;
28653;SDS011;24320;56.980;24.336;2023-07-08T00:03:42;3.13;;;1.60;;
28653;SDS011;24320;56.980;24.336;2023-07-08T00:06:16;2.78;;;1.73;;
28653;SDS011;24320;56.980;24.336;2023-07-08T00:08:47;2.53;;;1.73;;
28653;SDS011;24320;56.980;24.336;2023-07-08T00:11:15;2.47;;;1.60;;
28653;SDS011;24320;56.980;24.336;2023-07-08T00:13:43;5.78;;;2.17;;
28653;SDS011;24320;56.980;24.336;2023-07-08T00:16:12;3.55;;;1.92;;
28653;SDS011;24320;56.980;24.336;2023-07-08T00:18:41;5.75;;;1.80;;
28653;SDS011;24320;56.980;24.336;2023-07-08T00:21:08;5.55;;;2.08;;
28653;SDS011;24320;56.980;24.336;2023-07-08T00:23:36;3.33;;;2.05;;
28653;SDS011;24320;56.980;24.336;2023-07-08T00:26:08;1.98;;;1.60;;
28653;SDS011;24320;56.980;24.336;2023-07-08T00:28:45;5.88;;;1.85;;
28653;SDS011;24320;56.980;24.336;2023-07-08T00:31:12;5.60;;;2.20;;
28653;SDS011;24320;56.980;24.336;2023-07-08T00:33:40;6.25;;;1.88;;
28653;SDS011;24320;56.980;24.336;2023-07-08T00:36:11;5.18;;;1.85;;
28653;SDS011;24320;56.980;24.336;2023-07-08T00:38:43;3.28;;;2.03;;
28653;SDS011;24320;56.980;24.336;2023-07-08T00:41:18;6.22;;;1.85;;
28653;SDS011;24320;56.980;24.336;2023-07-08T00:43:59;5.18;;;1.75;;
28653;SDS011;24320;56.980;24.336;2023-07-08T00:52:23;3.97;;;1.92;;
28653;SDS011;24320;56.980;24.336;2023-07-08T00:54:53;2.40;;;1.70;;
28653;SDS011;24320;56.980;24.336;2023-07-08T00:57:32;6.18;;;2.25;;
28653;SDS011;24320;56.980;24.336;2023-07-08T01:02:29;2.90;;;1.80;;
28653;SDS011;24320;56.980;24.336;2023-07-08T01:05:01;5.18;;;2.17;;
28653;SDS011;24320;56.980;24.336;2023-07-08T01:07:33;7.45;;;2.33;;
28653;SDS011;24320;56.980;24.336;2023-07-08T01:10:01;3.15;;;2.13;;
28653;SDS011;24320;56.980;24.336;2023-07-08T01:12:37;8.63;;;2.55;;
28653;SDS011;24320;56.980;24.336;2023-07-08T01:15:09;2.42;;;2.08;;
28653;SDS011;24320;56.980;24.336;2023-07-08T01:17:37;10.18;;;2.45;;
28653;SDS011;24320;56.980;24.336;2023-07-08T01:20:04;6.38;;;2.50;;
28653;SDS011;24320;56.980;24.336;2023-07-08T01:22:36;4.88;;;2.90;;
28653;SDS011;24320;56.980;24.336;2023-07-08T01:25:04;5.13;;;2.20;;
28653;SDS011;24320;56.980;24.336;2023-07-08T01:27:33;4.85;;;2.38;;
28653;SDS011;24320;56.980;24.336;2023-07-08T01:30:05;5.35;;;2.72;;
28653;SDS011;24320;56.980;24.336;2023-07-08T01:32:33;3.42;;;2.33;;
28653;SDS011;24320;56.980;24.336;2023-07-08T01:35:02;6.53;;;2.50;;
28653;SDS011;24320;56.980;24.336;2023-07-08T01:42:51;3.72;;;2.53;;
28653;SDS011;24320;56.980;24.336;2023-07-08T01:45:19;5.30;;;2.42;;
28653;SDS011;24320;56.980;24.336;2023-07-08T01:47:49;8.07;;;2.80;;
28653;SDS011;24320;56.980;24.336;2023-07-08T01:50:23;4.05;;;2.25;;
28653;SDS011;24320;56.980;24.336;2023-07-08T01:52:52;6.03;;;2.40;;
28653;SDS011;24320;56.980;24.336;2023-07-08T01:57:51;7.95;;;2.80;;
28653;SDS011;24320;56.980;24.336;2023-07-08T02:00:21;8.30;;;2.67;;
28653;SDS011;24320;56.980;24.336;2023-07-08T02:05:20;11.10;;;2.53;;
28653;SDS011;24320;56.980;24.336;2023-07-08T02:07:49;6.10;;;2.75;;
28653;SDS011;24320;56.980;24.336;2023-07-08T02:10:16;4.88;;;2.40;;
28653;SDS011;24320;56.980;24.336;2023-07-08T02:12:43;4.50;;;2.20;;
28653;SDS011;24320;56.980;24.336;2023-07-08T02:15:11;7.80;;;2.85;;
28653;SDS011;24320;56.980;24.336;2023-07-08T02:17:38;9.18;;;3.08;;
28653;SDS011;24320;56.980;24.336;2023-07-08T02:20:05;4.43;;;2.67;;
28653;SDS011;24320;56.980;24.336;2023-07-08T02:22:34;5.82;;;2.42;;
28653;SDS011;24320;56.980;24.336;2023-07-08T02:25:03;3.13;;;2.53;;
28653;SDS011;24320;56.980;24.336;2023-07-08T02:27:31;5.32;;;2.80;;
28653;SDS011;24320;56.980;24.336;2023-07-08T02:29:58;4.03;;;2.60;;
28653;SDS011;24320;56.980;24.336;2023-07-08T02:32:26;5.88;;;2.30;;
28653;SDS011;24320;56.980;24.336;2023-07-08T02:34:53;5.97;;;2.50;;
28653;SDS011;24320;56.980;24.336;2023-07-08T02:37:20;7.47;;;2.88;;
28653;SDS011;24320;56.980;24.336;2023-07-08T02:39:47;3.83;;;2.78;;
28653;SDS011;24320;56.980;24.336;2023-07-08T02:42:14;7.60;;;2.35;;
28653;SDS011;24320;56.980;24.336;2023-07-08T02:44:41;3.63;;;2.20;;
28653;SDS011;24320;56.980;24.336;2023-07-08T02:47:08;2.55;;;2.22;;
28653;SDS011;24320;56.980;24.336;2023-07-08T02:49:35;4.38;;;2.30;;
28653;SDS011;24320;56.980;24.336;2023-07-08T02:52:02;5.30;;;2.40;;
28653;SDS011;24320;56.980;24.336;2023-07-08T02:54:29;6.07;;;2.42;;
28653;SDS011;24320;56.980;24.336;2023-07-08T02:56:56;3.90;;;2.58;;
28653;SDS011;24320;56.980;24.336;2023-07-08T02:59:23;5.78;;;2.58;;
28653;SDS011;24320;56.980;24.336;2023-07-08T03:01:50;4.28;;;2.53;;
28653;SDS011;24320;56.980;24.336;2023-07-08T03:04:17;7.90;;;2.53;;
28653;SDS011;24320;56.980;24.336;2023-07-08T03:06:45;4.35;;;2.53;;
28653;SDS011;24320;56.980;24.336;2023-07-08T03:09:12;3.97;;;2.33;;
28653;SDS011;24320;56.980;24.336;2023-07-08T03:11:39;12.48;;;2.97;;
28653;SDS011;24320;56.980;24.336;2023-07-08T03:14:07;5.22;;;2.45;;
28653;SDS011;24320;56.980;24.336;2023-07-08T03:16:34;3.75;;;2.78;;
28653;SDS011;24320;56.980;24.336;2023-07-08T03:19:01;8.10;;;2.78;;
28653;SDS011;24320;56.980;24.336;2023-07-08T03:21:29;5.30;;;2.80;;
28653;SDS011;24320;56.980;24.336;2023-07-08T03:23:56;7.55;;;2.58;;
28653;SDS011;24320;56.980;24.336;2023-07-08T03:26:23;5.85;;;2.80;;
28653;SDS011;24320;56.980;24.336;2023-07-08T03:28:56;4.47;;;2.70;;
28653;SDS011;24320;56.980;24.336;2023-07-08T03:31:23;7.90;;;2.72;;
28653;SDS011;24320;56.980;24.336;2023-07-08T03:33:50;4.85;;;2.50;;
28653;SDS011;24320;56.980;24.336;2023-07-08T03:36:17;3.60;;;2.45;;
28653;SDS011;24320;56.980;24.336;2023-07-08T03:41:26;4.75;;;2.85;;
28653;SDS011;24320;56.980;24.336;2023-07-08T03:43:53;4.70;;;3.00;;
28653;SDS011;24320;56.980;24.336;2023-07-08T03:46:21;6.45;;;2.45;;
28653;SDS011;24320;56.980;24.336;2023-07-08T03:48:49;4.88;;;2.55;;
28653;SDS011;24320;56.980;24.336;2023-07-08T03:51:21;3.55;;;2.50;;
28653;SDS011;24320;56.980;24.336;2023-07-08T03:53:52;4.40;;;2.60;;
28653;SDS011;24320;56.980;24.336;2023-07-08T03:56:19;4.35;;;2.80;;
28653;SDS011;24320;56.980;24.336;2023-07-08T03:58:46;3.08;;;2.60;;
28653;SDS011;24320;56.980;24.336;2023-07-08T04:01:15;6.18;;;2.75;;
28653;SDS011;24320;56.980;24.336;2023-07-08T04:03:50;3.75;;;2.50;;
28653;SDS011;24320;56.980;24.336;2023-07-08T04:06:18;4.57;;;2.40;;
28653;SDS011;24320;56.980;24.336;2023-07-08T04:08:46;11.13;;;2.72;;
28653;SDS011;24320;56.980;24.336;2023-07-08T04:11:14;7.25;;;2.40;;
28653;SDS011;24320;56.980;24.336;2023-07-08T04:13:42;4.93;;;2.40;;
28653;SDS011;24320;56.980;24.336;2023-07-08T04:16:14;3.65;;;2.10;;
28653;SDS011;24320;56.980;24.336;2023-07-08T04:18:46;3.05;;;2.22;;
28653;SDS011;24320;56.980;24.336;2023-07-08T04:21:14;5.03;;;2.05;;
28653;SDS011;24320;56.980;24.336;2023-07-08T04:23:44;7.97;;;2.38;;
28653;SDS011;24320;56.980;24.336;2023-07-08T04:26:11;4.75;;;2.20;;
28653;SDS011;24320;56.980;24.336;2023-07-08T04:28:39;4.93;;;1.80;;
28653;SDS011;24320;56.980;24.336;2023-07-08T04:31:06;3.28;;;1.92;;
28653;SDS011;24320;56.980;24.336;2023-07-08T04:33:33;4.22;;;2.08;;
28653;SDS011;24320;56.980;24.336;2023-07-08T04:36:01;3.90;;;2.03;;
28653;SDS011;24320;56.980;24.336;2023-07-08T04:38:28;2.75;;;1.80;;
28653;SDS011;24320;56.980;24.336;2023-07-08T04:40:55;7.40;;;2.13;;
28653;SDS011;24320;56.980;24.336;2023-07-08T04:43:24;3.83;;;2.08;;
28653;SDS011;24320;56.980;24.336;2023-07-08T04:45:55;3.78;;;2.08;;
28653;SDS011;24320;56.980;24.336;2023-07-08T04:48:24;4.32;;;1.67;;
28653;SDS011;24320;56.980;24.336;2023-07-08T04:53:27;2.03;;;1.70;;
28653;SDS011;24320;56.980;24.336;2023-07-08T04:55:55;5.28;;;1.95;;
28653;SDS011;24320;56.980;24.336;2023-07-08T04:58:22;6.35;;;3.45;;
28653;SDS011;24320;56.980;24.336;2023-07-08T05:00:49;25.45;;;8.85;;
28653;SDS011;24320;56.980;24.336;2023-07-08T05:03:16;6.90;;;4.63;;
28653;SDS011;24320;56.980;24.336;2023-07-08T05:05:43;3.47;;;2.20;;
28653;SDS011;24320;56.980;24.336;2023-07-08T05:08:11;2.45;;;1.60;;
28653;SDS011;24320;56.980;24.336;2023-07-08T05:10:38;3.38;;;1.67;;
28653;SDS011;24320;56.980;24.336;2023-07-08T05:13:06;4.10;;;2.08;;
28653;SDS011;24320;56.980;24.336;2023-07-08T05:15:33;5.53;;;2.08;;
28653;SDS011;24320;56.980;24.336;2023-07-08T05:18:01;3.08;;;1.58;;
28653;SDS011;24320;56.980;24.336;2023-07-08T05:20:29;4.43;;;1.98;;
28653;SDS011;24320;56.980;24.336;2023-07-08T05:22:57;4.45;;;1.77;;
28653;SDS011;24320;56.980;24.336;2023-07-08T05:25:24;2.90;;;1.60;;
28653;SDS011;24320;56.980;24.336;2023-07-08T05:27:51;2.65;;;1.60;;
28653;SDS011;24320;56.980;24.336;2023-07-08T05:30:18;4.43;;;1.52;;
28653;SDS011;24320;56.980;24.336;2023-07-08T05:32:45;2.97;;;1.80;;
28653;SDS011;24320;56.980;24.336;2023-07-08T05:35:12;4.53;;;1.83;;
28653;SDS011;24320;56.980;24.336;2023-07-08T05:37:40;5.15;;;1.90;;
28653;SDS011;24320;56.980;24.336;2023-07-08T05:42:37;4.45;;;1.88;;
28653;SDS011;24320;56.980;24.336;2023-07-08T05:45:05;3.55;;;1.90;;
28653;SDS011;24320;56.980;24.336;2023-07-08T05:47:37;4.00;;;2.40;;
28653;SDS011;24320;56.980;24.336;2023-07-08T05:50:04;6.35;;;2.20;;
28653;SDS011;24320;56.980;24.336;2023-07-08T05:52:31;4.35;;;2.38;;
28653;SDS011;24320;56.980;24.336;2023-07-08T05:54:58;3.88;;;2.15;;
28653;SDS011;24320;56.980;24.336;2023-07-08T05:57:25;3.45;;;1.73;;
28653;SDS011;24320;56.980;24.336;2023-07-08T05:59:52;2.50;;;1.85;;
28653;SDS011;24320;56.980;24.336;2023-07-08T06:02:20;2.97;;;2.25;;
28653;SDS011;24320;56.980;24.336;2023-07-08T06:04:49;4.43;;;2.15;;
28653;SDS011;24320;56.980;24.336;2023-07-08T06:07:16;3.22;;;2.00;;
28653;SDS011;24320;56.980;24.336;2023-07-08T06:09:44;5.00;;;1.90;;
28653;SDS011;24320;56.980;24.336;2023-07-08T06:12:11;2.33;;;1.90;;
28653;SDS011;24320;56.980;24.336;2023-07-08T06:14:38;4.68;;;1.75;;
28653;SDS011;24320;56.980;24.336;2023-07-08T06:17:05;3.25;;;1.98;;
28653;SDS011;24320;56.980;24.336;2023-07-08T06:19:33;6.25;;;2.30;;
28653;SDS011;24320;56.980;24.336;2023-07-08T06:22:00;5.40;;;2.13;;
28653;SDS011;24320;56.980;24.336;2023-07-08T06:24:47;8.93;;;2.67;;
28653;SDS011;24320;56.980;24.336;2023-07-08T06:27:14;6.05;;;3.90;;
28653;SDS011;24320;56.980;24.336;2023-07-08T06:29:41;4.88;;;3.70;;
28653;SDS011;24320;56.980;24.336;2023-07-08T06:32:09;6.68;;;3.63;;
28653;SDS011;24320;56.980;24.336;2023-07-08T06:34:36;5.60;;;3.63;;
28653;SDS011;24320;56.980;24.336;2023-07-08T06:37:03;8.45;;;4.25;;
28653;SDS011;24320;56.980;24.336;2023-07-08T06:39:31;6.13;;;3.45;;
28653;SDS011;24320;56.980;24.336;2023-07-08T06:41:58;6.47;;;4.07;;
28653;SDS011;24320;56.980;24.336;2023-07-08T06:44:25;6.00;;;4.00;;
28653;SDS011;24320;56.980;24.336;2023-07-08T06:46:52;3.83;;;3.10;;
28653;SDS011;24320;56.980;24.336;2023-07-08T06:49:19;4.82;;;3.30;;
28653;SDS011;24320;56.980;24.336;2023-07-08T06:51:46;5.47;;;3.05;;
28653;SDS011;24320;56.980;24.336;2023-07-08T06:54:13;6.95;;;3.70;;
28653;SDS011;24320;56.980;24.336;2023-07-08T06:56:40;7.10;;;4.10;;
28653;SDS011;24320;56.980;24.336;2023-07-08T06:59:08;5.90;;;3.78;;
28653;SDS011;24320;56.980;24.336;2023-07-08T07:01:35;7.63;;;5.10;;
28653;SDS011;24320;56.980;24.336;2023-07-08T07:04:05;6.82;;;4.65;;
28653;SDS011;24320;56.980;24.336;2023-07-08T07:06:32;4.18;;;2.83;;
28653;SDS011;24320;56.980;24.336;2023-07-08T07:08:59;5.82;;;2.47;;
28653;SDS011;24320;56.980;24.336;2023-07-08T07:11:26;3.40;;;2.65;;
28653;SDS011;24320;56.980;24.336;2023-07-08T07:13:54;12.55;;;3.00;;
28653;SDS011;24320;56.980;24.336;2023-07-08T07:16:22;2.17;;;1.80;;
28653;SDS011;24320;56.980;24.336;2023-07-08T07:18:49;1.60;;;1.50;;
28653;SDS011;24320;56.980;24.336;2023-07-08T07:21:18;3.80;;;1.98;;
28653;SDS011;24320;56.980;24.336;2023-07-08T07:23:45;4.63;;;2.00;;
28653;SDS011;24320;56.980;24.336;2023-07-08T07:26:13;4.30;;;1.77;;
28653;SDS011;24320;56.980;24.336;2023-07-08T07:28:40;1.80;;;1.65;;
28653;SDS011;24320;56.980;24.336;2023-07-08T07:31:07;2.53;;;1.70;;
28653;SDS011;24320;56.980;24.336;2023-07-08T07:33:37;2.42;;;1.55;;
28653;SDS011;24320;56.980;24.336;2023-07-08T07:36:04;1.60;;;1.42;;
28653;SDS011;24320;56.980;24.336;2023-07-08T07:38:32;2.17;;;1.75;;
28653;SDS011;24320;56.980;24.336;2023-07-08T07:40:59;2.95;;;1.63;;
28653;SDS011;24320;56.980;24.336;2023-07-08T07:43:33;3.03;;;1.80;;
28653;SDS011;24320;56.980;24.336;2023-07-08T07:46:00;1.40;;;1.30;;
28653;SDS011;24320;56.980;24.336;2023-07-08T07:48:36;4.18;;;1.70;;
28653;SDS011;24320;56.980;24.336;2023-07-08T07:51:04;4.78;;;1.52;;
28653;SDS011;24320;56.980;24.336;2023-07-08T07:53:32;4.15;;;1.48;;
28653;SDS011;24320;56.980;24.336;2023-07-08T07:55:59;2.45;;;1.40;;
28653;SDS011;24320;56.980;24.336;2023-07-08T07:58:28;4.03;;;2.35;;
28653;SDS011;24320;56.980;24.336;2023-07-08T08:00:56;1.98;;;1.20;;
28653;SDS011;24320;56.980;24.336;2023-07-08T08:03:24;7.15;;;2.70;;
28653;SDS011;24320;56.980;24.336;2023-07-08T08:05:52;2.58;;;1.83;;
28653;SDS011;24320;56.980;24.336;2023-07-08T08:08:19;1.52;;;1.42;;
28653;SDS011;24320;56.980;24.336;2023-07-08T08:10:48;3.30;;;1.50;;
28653;SDS011;24320;56.980;24.336;2023-07-08T08:13:15;3.33;;;1.70;;
28653;SDS011;24320;56.980;24.336;2023-07-08T08:15:42;2.83;;;1.55;;
28653;SDS011;24320;56.980;24.336;2023-07-08T08:18:10;2.67;;;1.73;;
28653;SDS011;24320;56.980;24.336;2023-07-08T08:20:37;2.78;;;1.73;;
28653;SDS011;24320;56.980;24.336;2023-07-08T08:23:05;2.13;;;1.65;;
28653;SDS011;24320;56.980;24.336;2023-07-08T08:25:33;3.10;;;1.33;;
28653;SDS011;24320;56.980;24.336;2023-07-08T08:28:00;5.85;;;1.88;;
28653;SDS011;24320;56.980;24.336;2023-07-08T08:30:27;2.85;;;1.20;;
28653;SDS011;24320;56.980;24.336;2023-07-08T08:32:54;1.20;;;1.10;;
28653;SDS011;24320;56.980;24.336;2023-07-08T08:35:21;2.92;;;1.40;;
28653;SDS011;24320;56.980;24.336;2023-07-08T08:37:48;4.43;;;1.42;;
28653;SDS011;24320;56.980;24.336;2023-07-08T08:40:15;1.95;;;1.60;;
28653;SDS011;24320;56.980;24.336;2023-07-08T08:42:51;2.78;;;1.55;;
28653;SDS011;24320;56.980;24.336;2023-07-08T08:45:32;1.40;;;1.20;;
28653;SDS011;24320;56.980;24.336;2023-07-08T08:48:10;2.33;;;1.38;;
28653;SDS011;24320;56.980;24.336;2023-07-08T08:50:41;2.00;;;1.30;;
28653;SDS011;24320;56.980;24.336;2023-07-08T08:53:16;1.88;;;1.30;;
28653;SDS011;24320;56.980;24.336;2023-07-08T08:55:46;1.95;;;1.30;;
28653;SDS011;24320;56.980;24.336;2023-07-08T09:01:58;3.80;;;1.55;;
28653;SDS011;24320;56.980;24.336;2023-07-08T09:04:32;4.80;;;1.20;;
28653;SDS011;24320;56.980;24.336;2023-07-08T09:07:05;1.50;;;1.15;;
28653;SDS011;24320;56.980;24.336;2023-07-08T09:09:41;1.98;;;1.30;;
28653;SDS011;24320;56.980;24.336;2023-07-08T09:12:31;2.47;;;1.50;;
28653;SDS011;24320;56.980;24.336;2023-07-08T09:15:07;5.25;;;1.50;;
28653;SDS011;24320;56.980;24.336;2023-07-08T09:17:40;2.10;;;1.25;;
28653;SDS011;24320;56.980;24.336;2023-07-08T09:20:21;3.58;;;1.20;;
28653;SDS011;24320;56.980;24.336;2023-07-08T09:27:52;4.45;;;1.38;;
28653;SDS011;24320;56.980;24.336;2023-07-08T09:30:20;1.80;;;1.23;;
28653;SDS011;24320;56.980;24.336;2023-07-08T09:32:49;2.85;;;1.38;;
28653;SDS011;24320;56.980;24.336;2023-07-08T09:35:20;1.48;;;1.20;;
28653;SDS011;24320;56.980;24.336;2023-07-08T09:37:48;2.00;;;1.38;;
28653;SDS011;24320;56.980;24.336;2023-07-08T09:40:18;1.70;;;1.40;;
28653;SDS011;24320;56.980;24.336;2023-07-08T09:45:51;3.05;;;1.80;;
28653;SDS011;24320;56.980;24.336;2023-07-08T09:48:25;1.50;;;1.40;;
28653;SDS011;24320;56.980;24.336;2023-07-08T09:50:56;3.35;;;1.30;;
28653;SDS011;24320;56.980;24.336;2023-07-08T09:53:25;1.83;;;1.50;;
28653;SDS011;24320;56.980;24.336;2023-07-08T09:55:53;3.33;;;1.60;;
28653;SDS011;24320;56.980;24.336;2023-07-08T10:00:55;2.95;;;1.50;;
28653;SDS011;24320;56.980;24.336;2023-07-08T10:03:29;1.50;;;1.40;;
28653;SDS011;24320;56.980;24.336;2023-07-08T10:06:02;2.20;;;1.48;;
28653;SDS011;24320;56.980;24.336;2023-07-08T10:08:37;2.05;;;1.30;;
28653;SDS011;24320;56.980;24.336;2023-07-08T10:13:59;2.30;;;1.35;;
28653;SDS011;24320;56.980;24.336;2023-07-08T10:16:40;3.13;;;1.40;;
28653;SDS011;24320;56.980;24.336;2023-07-08T10:19:11;2.47;;;1.38;;
28653;SDS011;24320;56.980;24.336;2023-07-08T10:29:47;3.28;;;1.65;;
28653;SDS011;24320;56.980;24.336;2023-07-08T10:35:17;6.03;;;1.88;;
28653;SDS011;24320;56.980;24.336;2023-07-08T10:40:53;3.03;;;1.65;;
28653;SDS011;24320;56.980;24.336;2023-07-08T10:48:45;4.40;;;1.40;;
28653;SDS011;24320;56.980;24.336;2023-07-08T11:05:10;2.22;;;2.00;;
28653;SDS011;24320;56.980;24.336;2023-07-08T11:07:48;3.30;;;1.83;;
28653;SDS011;24320;56.980;24.336;2023-07-08T11:10:33;4.60;;;2.05;;
28653;SDS011;24320;56.980;24.336;2023-07-08T11:13:06;5.57;;;2.20;;
28653;SDS011;24320;56.980;24.336;2023-07-08T11:16:22;5.35;;;3.10;;
28653;SDS011;24320;56.980;24.336;2023-07-08T11:23:56;1.80;;;1.48;;
28653;SDS011;24320;56.980;24.336;2023-07-08T11:26:39;3.28;;;2.00;;
28653;SDS011;24320;56.980;24.336;2023-07-08T11:29:54;2.95;;;1.98;;
28653;SDS011;24320;56.980;24.336;2023-07-08T11:32:06;3.03;;;1.40;;
28653;SDS011;24320;56.980;24.336;2023-07-08T11:34:40;3.78;;;1.90;;
28653;SDS011;24320;56.980;24.336;2023-07-08T11:37:09;4.50;;;1.67;;
28653;SDS011;24320;56.980;24.336;2023-07-08T11:39:40;3.03;;;1.55;;
28653;SDS011;24320;56.980;24.336;2023-07-08T11:44:53;2.38;;;1.50;;
28653;SDS011;24320;56.980;24.336;2023-07-08T11:49:53;3.38;;;1.70;;
28653;SDS011;24320;56.980;24.336;2023-07-08T11:52:21;1.83;;;1.33;;
28653;SDS011;24320;56.980;24.336;2023-07-08T11:54:55;3.22;;;1.55;;
28653;SDS011;24320;56.980;24.336;2023-07-08T11:57:46;2.70;;;1.20;;
28653;SDS011;24320;56.980;24.336;2023-07-08T12:00:25;1.40;;;1.13;;
28653;SDS011;24320;56.980;24.336;2023-07-08T12:03:03;2.35;;;1.38;;
28653;SDS011;24320;56.980;24.336;2023-07-08T12:05:44;2.55;;;1.30;;
28653;SDS011;24320;56.980;24.336;2023-07-08T12:08:13;2.05;;;1.42;;
28653;SDS011;24320;56.980;24.336;2023-07-08T12:10:46;2.15;;;1.40;;
28653;SDS011;24320;56.980;24.336;2023-07-08T12:13:18;4.28;;;1.30;;
28653;SDS011;24320;56.980;24.336;2023-07-08T12:15:48;4.55;;;1.73;;
28653;SDS011;24320;56.980;24.336;2023-07-08T12:18:24;12.70;;;3.00;;
28653;SDS011;24320;56.980;24.336;2023-07-08T12:20:55;2.22;;;1.30;;
28653;SDS011;24320;56.980;24.336;2023-07-08T12:23:24;1.42;;;1.30;;
28653;SDS011;24320;56.980;24.336;2023-07-08T12:25:52;2.42;;;1.40;;
28653;SDS011;24320;56.980;24.336;2023-07-08T12:28:21;1.65;;;1.25;;
28653;SDS011;24320;56.980;24.336;2023-07-08T12:30:50;2.42;;;1.20;;
28653;SDS011;24320;56.980;24.336;2023-07-08T12:33:27;2.42;;;1.10;;
28653;SDS011;24320;56.980;24.336;2023-07-08T12:35:56;1.88;;;1.10;;
28653;SDS011;24320;56.980;24.336;2023-07-08T12:38:33;1.30;;;0.98;;
28653;SDS011;24320;56.980;24.336;2023-07-08T12:41:11;1.90;;;1.10;;
28653;SDS011;24320;56.980;24.336;2023-07-08T12:43:40;1.30;;;1.05;;
28653;SDS011;24320;56.980;24.336;2023-07-08T12:46:11;2.33;;;1.00;;
28653;SDS011;24320;56.980;24.336;2023-07-08T12:48:39;1.33;;;1.00;;
28653;SDS011;24320;56.980;24.336;2023-07-08T12:51:11;1.23;;;1.00;;
28653;SDS011;24320;56.980;24.336;2023-07-08T12:53:40;4.30;;;1.00;;
28653;SDS011;24320;56.980;24.336;2023-07-08T12:56:08;3.45;;;1.20;;
28653;SDS011;24320;56.980;24.336;2023-07-08T12:58:40;2.47;;;1.02;;
28653;SDS011;24320;56.980;24.336;2023-07-08T13:01:11;3.38;;;0.90;;
28653;SDS011;24320;56.980;24.336;2023-07-08T13:03:45;2.05;;;1.00;;
28653;SDS011;24320;56.980;24.336;2023-07-08T13:06:16;1.13;;;0.90;;
28653;SDS011;24320;56.980;24.336;2023-07-08T13:11:14;1.30;;;0.90;;
28653;SDS011;24320;56.980;24.336;2023-07-08T13:13:50;3.08;;;1.08;;
28653;SDS011;24320;56.980;24.336;2023-07-08T13:16:22;1.80;;;0.82;;
28653;SDS011;24320;56.980;24.336;2023-07-08T13:18:55;2.45;;;0.95;;
28653;SDS011;24320;56.980;24.336;2023-07-08T13:21:22;2.40;;;1.10;;
28653;SDS011;24320;56.980;24.336;2023-07-08T13:23:51;4.10;;;1.10;;
28653;SDS011;24320;56.980;24.336;2023-07-08T13:26:18;1.25;;;0.95;;
28653;SDS011;24320;56.980;24.336;2023-07-08T13:28:48;1.95;;;1.15;;
28653;SDS011;24320;56.980;24.336;2023-07-08T13:31:19;2.95;;;1.25;;
28653;SDS011;24320;56.980;24.336;2023-07-08T13:33:54;2.42;;;1.20;;
28653;SDS011;24320;56.980;24.336;2023-07-08T13:36:29;1.88;;;1.10;;
28653;SDS011;24320;56.980;24.336;2023-07-08T13:39:01;1.25;;;1.10;;
28653;SDS011;24320;56.980;24.336;2023-07-08T13:41:31;2.65;;;1.10;;
28653;SDS011;24320;56.980;24.336;2023-07-08T13:44:03;2.40;;;1.05;;
28653;SDS011;24320;56.980;24.336;2023-07-08T13:46:36;1.70;;;1.02;;
28653;SDS011;24320;56.980;24.336;2023-07-08T13:52:07;3.42;;;1.10;;
28653;SDS011;24320;56.980;24.336;2023-07-08T13:54:45;3.50;;;1.13;;
28653;SDS011;24320;56.980;24.336;2023-07-08T13:57:20;2.78;;;1.20;;
28653;SDS011;24320;56.980;24.336;2023-07-08T13:59:48;1.63;;;0.90;;
28653;SDS011;24320;56.980;24.336;2023-07-08T14:02:17;2.15;;;1.30;;
28653;SDS011;24320;56.980;24.336;2023-07-08T14:04:46;1.58;;;1.13;;
28653;SDS011;24320;56.980;24.336;2023-07-08T14:07:18;1.38;;;0.90;;
28653;SDS011;24320;56.980;24.336;2023-07-08T14:09:47;1.52;;;1.27;;
28653;SDS011;24320;56.980;24.336;2023-07-08T14:12:15;1.95;;;1.20;;
28653;SDS011;24320;56.980;24.336;2023-07-08T14:14:42;2.50;;;1.20;;
28653;SDS011;24320;56.980;24.336;2023-07-08T14:17:12;3.08;;;1.30;;
28653;SDS011;24320;56.980;24.336;2023-07-08T14:19:45;1.40;;;1.20;;
28653;SDS011;24320;56.980;24.336;2023-07-08T14:24:42;3.15;;;1.60;;
28653;SDS011;24320;56.980;24.336;2023-07-08T14:27:10;3.13;;;1.50;;
28653;SDS011;24320;56.980;24.336;2023-07-08T14:29:40;2.47;;;1.60;;
28653;SDS011;24320;56.980;24.336;2023-07-08T14:32:20;3.90;;;1.35;;
28653;SDS011;24320;56.980;24.336;2023-07-08T14:34:51;2.30;;;1.52;;
28653;SDS011;24320;56.980;24.336;2023-07-08T14:39:47;3.17;;;1.73;;
28653;SDS011;24320;56.980;24.336;2023-07-08T14:42:15;2.83;;;1.70;;
28653;SDS011;24320;56.980;24.336;2023-07-08T14:44:45;1.92;;;1.45;;
28653;SDS011;24320;56.980;24.336;2023-07-08T14:47:18;2.80;;;1.65;;
28653;SDS011;24320;56.980;24.336;2023-07-08T14:49:46;3.83;;;1.30;;
28653;SDS011;24320;56.980;24.336;2023-07-08T14:52:13;4.10;;;1.30;;
28653;SDS011;24320;56.980;24.336;2023-07-08T14:54:40;2.88;;;1.45;;
28653;SDS011;24320;56.980;24.336;2023-07-08T14:57:07;5.32;;;2.58;;
28653;SDS011;24320;56.980;24.336;2023-07-08T14:59:41;2.80;;;1.60;;
28653;SDS011;24320;56.980;24.336;2023-07-08T15:02:16;3.53;;;1.17;;
28653;SDS011;24320;56.980;24.336;2023-07-08T15:04:46;1.20;;;1.00;;
28653;SDS011;24320;56.980;24.336;2023-07-08T15:07:13;4.05;;;1.25;;
28653;SDS011;24320;56.980;24.336;2023-07-08T15:09:40;2.80;;;1.02;;
28653;SDS011;24320;56.980;24.336;2023-07-08T15:12:08;1.40;;;1.10;;
28653;SDS011;24320;56.980;24.336;2023-07-08T15:14:37;1.13;;;1.02;;
28653;SDS011;24320;56.980;24.336;2023-07-08T15:17:10;2.25;;;1.15;;
28653;SDS011;24320;56.980;24.336;2023-07-08T15:19:43;3.03;;;1.10;;
28653;SDS011;24320;56.980;24.336;2023-07-08T15:22:11;4.35;;;1.48;;
28653;SDS011;24320;56.980;24.336;2023-07-08T15:24:38;1.30;;;1.20;;
28653;SDS011;24320;56.980;24.336;2023-07-08T15:27:05;2.25;;;1.40;;
28653;SDS011;24320;56.980;24.336;2023-07-08T15:29:35;2.10;;;1.20;;
28653;SDS011;24320;56.980;24.336;2023-07-08T15:32:02;1.90;;;1.15;;
28653;SDS011;24320;56.980;24.336;2023-07-08T15:34:47;1.23;;;1.10;;
28653;SDS011;24320;56.980;24.336;2023-07-08T15:37:14;5.28;;;1.38;;
28653;SDS011;24320;56.980;24.336;2023-07-08T15:39:41;1.73;;;1.25;;
28653;SDS011;24320;56.980;24.336;2023-07-08T15:42:11;1.88;;;0.90;;
28653;SDS011;24320;56.980;24.336;2023-07-08T15:44:39;5.38;;;1.30;;
28653;SDS011;24320;56.980;24.336;2023-07-08T15:47:08;3.08;;;1.30;;
28653;SDS011;24320;56.980;24.336;2023-07-08T15:49:39;2.03;;;1.00;;
28653;SDS011;24320;56.980;24.336;2023-07-08T15:52:07;1.80;;;1.38;;
28653;SDS011;24320;56.980;24.336;2023-07-08T15:54:34;1.33;;;1.00;;
28653;SDS011;24320;56.980;24.336;2023-07-08T15:57:02;1.77;;;1.33;;
28653;SDS011;24320;56.980;24.336;2023-07-08T15:59:32;2.65;;;1.30;;
28653;SDS011;24320;56.980;24.336;2023-07-08T16:02:02;2.97;;;1.30;;
28653;SDS011;24320;56.980;24.336;2023-07-08T16:04:37;1.70;;;1.30;;
28653;SDS011;24320;56.980;24.336;2023-07-08T16:07:04;1.60;;;1.30;;
28653;SDS011;24320;56.980;24.336;2023-07-08T16:09:34;2.03;;;1.40;;
28653;SDS011;24320;56.980;24.336;2023-07-08T16:12:01;3.25;;;1.20;;
28653;SDS011;24320;56.980;24.336;2023-07-08T16:14:29;3.70;;;1.30;;
28653;SDS011;24320;56.980;24.336;2023-07-08T16:16:56;2.13;;;1.23;;
28653;SDS011;24320;56.980;24.336;2023-07-08T16:19:24;2.83;;;1.35;;
28653;SDS011;24320;56.980;24.336;2023-07-08T16:21:51;4.03;;;1.42;;
28653;SDS011;24320;56.980;24.336;2023-07-08T16:24:18;2.08;;;1.30;;
28653;SDS011;24320;56.980;24.336;2023-07-08T16:26:46;3.38;;;1.50;;